sensor_id;sensor_type;location;lat;lon;timestamp;P1;durP1;ratioP1;P2;durP2;ratioP2
39032;SDS011;24794;51.982;5.878;2023-11-21T00:00:26;13.95;;;9.52;;
39032;SDS011;24794;51.982;5.878;2023-11-21T00:01:26;15.75;;;9.73;;
39032;SDS011;24794;51.982;5.878;2023-11-21T00:02:27;14.95;;;9.18;;
39032;SDS011;24794;51.982;5.878;2023-11-21T00:03:28;14.93;;;9.27;;
39032;SDS011;24794;51.982;5.878;2023-11-21T00:04:28;14.10;;;9.57;;
39032;SDS011;24794;51.982;5.878;2023-11-21T00:05:29;15.02;;;9.77;;
39032;SDS011;24794;51.982;5.878;2023-11-21T00:06:29;18.33;;;10.57;;
39032;SDS011;24794;51.982;5.878;2023-11-21T00:07:30;14.85;;;10.00;;
39032;SDS011;24794;51.982;5.878;2023-11-21T00:08:31;17.23;;;10.23;;
39032;SDS011;24794;51.982;5.878;2023-11-21T00:09:32;15.63;;;10.02;;
39032;SDS011;24794;51.982;5.878;2023-11-21T00:10:33;13.77;;;9.57;;
39032;SDS011;24794;51.982;5.878;2023-11-21T00:11:34;16.38;;;9.20;;
39032;SDS011;24794;51.982;5.878;2023-11-21T00:12:35;17.58;;;10.18;;
39032;SDS011;24794;51.982;5.878;2023-11-21T00:13:36;14.98;;;10.23;;
39032;SDS011;24794;51.982;5.878;2023-11-21T00:14:37;15.00;;;9.45;;
39032;SDS011;24794;51.982;5.878;2023-11-21T00:15:38;14.13;;;9.40;;
39032;SDS011;24794;51.982;5.878;2023-11-21T00:16:38;14.93;;;9.40;;
39032;SDS011;24794;51.982;5.878;2023-11-21T00:17:40;17.58;;;9.70;;
39032;SDS011;24794;51.982;5.878;2023-11-21T00:18:40;17.00;;;10.43;;
39032;SDS011;24794;51.982;5.878;2023-11-21T00:19:42;16.65;;;10.35;;
39032;SDS011;24794;51.982;5.878;2023-11-21T00:20:43;13.90;;;9.48;;
39032;SDS011;24794;51.982;5.878;2023-11-21T00:21:43;16.17;;;9.73;;
39032;SDS011;24794;51.982;5.878;2023-11-21T00:22:45;14.50;;;9.85;;
39032;SDS011;24794;51.982;5.878;2023-11-21T00:23:45;14.50;;;9.60;;
39032;SDS011;24794;51.982;5.878;2023-11-21T00:24:46;15.43;;;9.52;;
39032;SDS011;24794;51.982;5.878;2023-11-21T00:25:47;15.68;;;9.68;;
39032;SDS011;24794;51.982;5.878;2023-11-21T00:26:48;15.27;;;9.27;;
39032;SDS011;24794;51.982;5.878;2023-11-21T00:27:48;17.60;;;9.88;;
39032;SDS011;24794;51.982;5.878;2023-11-21T00:28:49;16.00;;;9.80;;
39032;SDS011;24794;51.982;5.878;2023-11-21T00:29:50;17.90;;;10.18;;
39032;SDS011;24794;51.982;5.878;2023-11-21T00:30:51;15.70;;;9.57;;
39032;SDS011;24794;51.982;5.878;2023-11-21T00:31:51;16.83;;;9.88;;
39032;SDS011;24794;51.982;5.878;2023-11-21T00:32:52;17.38;;;10.32;;
39032;SDS011;24794;51.982;5.878;2023-11-21T00:33:53;19.42;;;9.75;;
39032;SDS011;24794;51.982;5.878;2023-11-21T00:34:54;17.60;;;10.13;;
39032;SDS011;24794;51.982;5.878;2023-11-21T00:35:55;18.80;;;9.35;;
39032;SDS011;24794;51.982;5.878;2023-11-21T00:36:56;17.42;;;10.27;;
39032;SDS011;24794;51.982;5.878;2023-11-21T00:37:56;15.05;;;9.63;;
39032;SDS011;24794;51.982;5.878;2023-11-21T00:38:58;14.55;;;9.85;;
39032;SDS011;24794;51.982;5.878;2023-11-21T00:39:59;20.98;;;9.95;;
39032;SDS011;24794;51.982;5.878;2023-11-21T00:40:59;14.63;;;9.38;;
39032;SDS011;24794;51.982;5.878;2023-11-21T00:42:00;15.10;;;9.15;;
39032;SDS011;24794;51.982;5.878;2023-11-21T00:43:00;15.07;;;9.45;;
39032;SDS011;24794;51.982;5.878;2023-11-21T00:44:01;17.48;;;9.50;;
39032;SDS011;24794;51.982;5.878;2023-11-21T00:45:01;15.70;;;9.75;;
39032;SDS011;24794;51.982;5.878;2023-11-21T00:46:04;17.02;;;9.90;;
39032;SDS011;24794;51.982;5.878;2023-11-21T00:47:07;16.17;;;9.35;;
39032;SDS011;24794;51.982;5.878;2023-11-21T00:48:08;17.38;;;9.50;;
39032;SDS011;24794;51.982;5.878;2023-11-21T00:49:08;15.82;;;9.40;;
39032;SDS011;24794;51.982;5.878;2023-11-21T00:50:09;15.73;;;9.95;;
39032;SDS011;24794;51.982;5.878;2023-11-21T00:51:09;14.25;;;9.18;;
39032;SDS011;24794;51.982;5.878;2023-11-21T00:52:10;19.02;;;10.80;;
39032;SDS011;24794;51.982;5.878;2023-11-21T00:53:10;16.20;;;9.95;;
39032;SDS011;24794;51.982;5.878;2023-11-21T00:54:11;16.80;;;10.20;;
39032;SDS011;24794;51.982;5.878;2023-11-21T00:55:12;17.92;;;9.55;;
39032;SDS011;24794;51.982;5.878;2023-11-21T00:56:13;16.25;;;9.77;;
39032;SDS011;24794;51.982;5.878;2023-11-21T00:57:14;14.50;;;9.20;;
39032;SDS011;24794;51.982;5.878;2023-11-21T00:58:15;17.08;;;9.63;;
39032;SDS011;24794;51.982;5.878;2023-11-21T00:59:16;13.98;;;8.73;;
39032;SDS011;24794;51.982;5.878;2023-11-21T01:00:16;13.90;;;8.93;;
39032;SDS011;24794;51.982;5.878;2023-11-21T01:01:21;16.02;;;9.50;;
39032;SDS011;24794;51.982;5.878;2023-11-21T01:02:22;15.70;;;9.52;;
39032;SDS011;24794;51.982;5.878;2023-11-21T01:03:23;15.48;;;9.30;;
39032;SDS011;24794;51.982;5.878;2023-11-21T01:04:24;16.25;;;10.20;;
39032;SDS011;24794;51.982;5.878;2023-11-21T01:05:24;18.65;;;10.55;;
39032;SDS011;24794;51.982;5.878;2023-11-21T01:06:25;17.63;;;10.43;;
39032;SDS011;24794;51.982;5.878;2023-11-21T01:07:25;16.50;;;10.30;;
39032;SDS011;24794;51.982;5.878;2023-11-21T01:08:27;18.20;;;10.73;;
39032;SDS011;24794;51.982;5.878;2023-11-21T01:09:28;22.80;;;10.27;;
39032;SDS011;24794;51.982;5.878;2023-11-21T01:10:30;18.67;;;10.35;;
39032;SDS011;24794;51.982;5.878;2023-11-21T01:11:30;19.52;;;10.07;;
39032;SDS011;24794;51.982;5.878;2023-11-21T01:12:31;17.30;;;10.45;;
39032;SDS011;24794;51.982;5.878;2023-11-21T01:13:31;17.80;;;9.98;;
39032;SDS011;24794;51.982;5.878;2023-11-21T01:14:32;20.73;;;10.68;;
39032;SDS011;24794;51.982;5.878;2023-11-21T01:15:33;22.95;;;11.52;;
39032;SDS011;24794;51.982;5.878;2023-11-21T01:16:34;21.75;;;10.68;;
39032;SDS011;24794;51.982;5.878;2023-11-21T01:17:34;21.35;;;11.50;;
39032;SDS011;24794;51.982;5.878;2023-11-21T01:18:35;21.50;;;11.32;;
39032;SDS011;24794;51.982;5.878;2023-11-21T01:19:36;18.58;;;9.70;;
39032;SDS011;24794;51.982;5.878;2023-11-21T01:20:37;23.58;;;10.50;;
39032;SDS011;24794;51.982;5.878;2023-11-21T01:21:37;23.23;;;10.52;;
39032;SDS011;24794;51.982;5.878;2023-11-21T01:22:38;27.88;;;11.88;;
39032;SDS011;24794;51.982;5.878;2023-11-21T01:23:39;22.13;;;11.77;;
39032;SDS011;24794;51.982;5.878;2023-11-21T01:24:40;42.10;;;13.60;;
39032;SDS011;24794;51.982;5.878;2023-11-21T01:25:40;44.72;;;15.02;;
39032;SDS011;24794;51.982;5.878;2023-11-21T01:26:41;32.13;;;14.80;;
39032;SDS011;24794;51.982;5.878;2023-11-21T01:27:41;23.67;;;13.60;;
39032;SDS011;24794;51.982;5.878;2023-11-21T01:28:43;35.67;;;13.60;;
39032;SDS011;24794;51.982;5.878;2023-11-21T01:29:43;46.03;;;14.18;;
39032;SDS011;24794;51.982;5.878;2023-11-21T01:30:44;27.60;;;14.02;;
39032;SDS011;24794;51.982;5.878;2023-11-21T01:31:45;30.70;;;13.40;;
39032;SDS011;24794;51.982;5.878;2023-11-21T01:32:47;25.48;;;13.32;;
39032;SDS011;24794;51.982;5.878;2023-11-21T01:33:47;21.77;;;12.38;;
39032;SDS011;24794;51.982;5.878;2023-11-21T01:34:50;30.27;;;13.48;;
39032;SDS011;24794;51.982;5.878;2023-11-21T01:35:50;38.60;;;14.65;;
39032;SDS011;24794;51.982;5.878;2023-11-21T01:36:54;33.90;;;14.48;;
39032;SDS011;24794;51.982;5.878;2023-11-21T01:37:55;36.67;;;13.93;;
39032;SDS011;24794;51.982;5.878;2023-11-21T01:38:55;27.15;;;12.80;;
39032;SDS011;24794;51.982;5.878;2023-11-21T01:39:59;25.85;;;12.77;;
39032;SDS011;24794;51.982;5.878;2023-11-21T01:41:01;26.90;;;12.68;;
39032;SDS011;24794;51.982;5.878;2023-11-21T01:42:02;24.23;;;13.43;;
39032;SDS011;24794;51.982;5.878;2023-11-21T01:43:02;41.55;;;15.25;;
39032;SDS011;24794;51.982;5.878;2023-11-21T01:44:06;31.92;;;13.75;;
39032;SDS011;24794;51.982;5.878;2023-11-21T01:45:09;33.38;;;13.88;;
39032;SDS011;24794;51.982;5.878;2023-11-21T01:46:12;23.60;;;11.75;;
39032;SDS011;24794;51.982;5.878;2023-11-21T01:47:15;23.80;;;12.23;;
39032;SDS011;24794;51.982;5.878;2023-11-21T01:48:16;26.77;;;11.90;;
39032;SDS011;24794;51.982;5.878;2023-11-21T01:49:17;22.08;;;12.43;;
39032;SDS011;24794;51.982;5.878;2023-11-21T01:50:18;24.08;;;12.63;;
39032;SDS011;24794;51.982;5.878;2023-11-21T01:51:19;28.38;;;12.63;;
39032;SDS011;24794;51.982;5.878;2023-11-21T01:52:20;23.92;;;12.30;;
39032;SDS011;24794;51.982;5.878;2023-11-21T01:53:20;32.63;;;13.38;;
39032;SDS011;24794;51.982;5.878;2023-11-21T01:54:21;27.23;;;13.15;;
39032;SDS011;24794;51.982;5.878;2023-11-21T01:55:22;24.38;;;12.77;;
39032;SDS011;24794;51.982;5.878;2023-11-21T01:56:23;29.77;;;12.77;;
39032;SDS011;24794;51.982;5.878;2023-11-21T01:57:23;36.33;;;14.10;;
39032;SDS011;24794;51.982;5.878;2023-11-21T01:58:24;24.33;;;13.15;;
39032;SDS011;24794;51.982;5.878;2023-11-21T01:59:25;25.08;;;13.30;;
39032;SDS011;24794;51.982;5.878;2023-11-21T02:00:26;26.38;;;12.25;;
39032;SDS011;24794;51.982;5.878;2023-11-21T02:01:28;33.33;;;11.98;;
39032;SDS011;24794;51.982;5.878;2023-11-21T02:02:28;34.97;;;12.13;;
39032;SDS011;24794;51.982;5.878;2023-11-21T02:03:29;31.60;;;12.85;;
39032;SDS011;24794;51.982;5.878;2023-11-21T02:04:29;21.35;;;12.15;;
39032;SDS011;24794;51.982;5.878;2023-11-21T02:05:30;17.98;;;11.38;;
39032;SDS011;24794;51.982;5.878;2023-11-21T02:06:30;24.02;;;11.48;;
39032;SDS011;24794;51.982;5.878;2023-11-21T02:07:31;25.40;;;11.65;;
39032;SDS011;24794;51.982;5.878;2023-11-21T02:08:32;22.92;;;11.52;;
39032;SDS011;24794;51.982;5.878;2023-11-21T02:09:33;21.30;;;11.52;;
39032;SDS011;24794;51.982;5.878;2023-11-21T02:10:34;28.67;;;11.70;;
39032;SDS011;24794;51.982;5.878;2023-11-21T02:11:36;34.58;;;11.55;;
39032;SDS011;24794;51.982;5.878;2023-11-21T02:12:39;28.63;;;12.15;;
39032;SDS011;24794;51.982;5.878;2023-11-21T02:13:39;28.05;;;11.90;;
39032;SDS011;24794;51.982;5.878;2023-11-21T02:14:47;26.75;;;11.55;;
39032;SDS011;24794;51.982;5.878;2023-11-21T02:15:48;36.28;;;11.35;;
39032;SDS011;24794;51.982;5.878;2023-11-21T02:16:52;29.08;;;13.13;;
39032;SDS011;24794;51.982;5.878;2023-11-21T02:17:53;26.98;;;11.90;;
39032;SDS011;24794;51.982;5.878;2023-11-21T02:18:54;26.27;;;12.25;;
39032;SDS011;24794;51.982;5.878;2023-11-21T02:19:56;38.85;;;12.90;;
39032;SDS011;24794;51.982;5.878;2023-11-21T02:20:56;39.90;;;13.57;;
39032;SDS011;24794;51.982;5.878;2023-11-21T02:21:57;44.85;;;14.15;;
39032;SDS011;24794;51.982;5.878;2023-11-21T02:23:00;38.22;;;14.30;;
39032;SDS011;24794;51.982;5.878;2023-11-21T02:24:01;43.85;;;13.57;;
39032;SDS011;24794;51.982;5.878;2023-11-21T02:25:02;35.30;;;12.73;;
39032;SDS011;24794;51.982;5.878;2023-11-21T02:26:03;41.35;;;13.25;;
39032;SDS011;24794;51.982;5.878;2023-11-21T02:27:04;34.42;;;12.90;;
39032;SDS011;24794;51.982;5.878;2023-11-21T02:28:06;35.85;;;14.00;;
39032;SDS011;24794;51.982;5.878;2023-11-21T02:29:06;32.22;;;14.30;;
39032;SDS011;24794;51.982;5.878;2023-11-21T02:30:10;34.72;;;14.63;;
39032;SDS011;24794;51.982;5.878;2023-11-21T02:31:13;42.08;;;14.32;;
39032;SDS011;24794;51.982;5.878;2023-11-21T02:32:14;49.80;;;14.40;;
39032;SDS011;24794;51.982;5.878;2023-11-21T02:33:14;36.85;;;14.68;;
39032;SDS011;24794;51.982;5.878;2023-11-21T02:34:15;33.08;;;13.77;;
39032;SDS011;24794;51.982;5.878;2023-11-21T02:35:16;53.30;;;14.57;;
39032;SDS011;24794;51.982;5.878;2023-11-21T02:36:16;39.90;;;13.88;;
39032;SDS011;24794;51.982;5.878;2023-11-21T02:37:17;30.77;;;14.00;;
39032;SDS011;24794;51.982;5.878;2023-11-21T02:38:18;31.75;;;13.15;;
39032;SDS011;24794;51.982;5.878;2023-11-21T02:39:18;40.03;;;13.05;;
39032;SDS011;24794;51.982;5.878;2023-11-21T02:40:22;25.55;;;12.90;;
39032;SDS011;24794;51.982;5.878;2023-11-21T02:41:24;39.90;;;11.95;;
39032;SDS011;24794;51.982;5.878;2023-11-21T02:42:25;40.28;;;14.35;;
39032;SDS011;24794;51.982;5.878;2023-11-21T02:43:26;39.08;;;13.75;;
39032;SDS011;24794;51.982;5.878;2023-11-21T02:44:26;44.17;;;15.40;;
39032;SDS011;24794;51.982;5.878;2023-11-21T02:45:27;61.25;;;15.40;;
39032;SDS011;24794;51.982;5.878;2023-11-21T02:46:27;37.30;;;14.20;;
39032;SDS011;24794;51.982;5.878;2023-11-21T02:47:28;48.33;;;15.07;;
39032;SDS011;24794;51.982;5.878;2023-11-21T02:48:28;57.13;;;15.68;;
39032;SDS011;24794;51.982;5.878;2023-11-21T02:49:30;28.98;;;13.32;;
39032;SDS011;24794;51.982;5.878;2023-11-21T02:50:31;37.83;;;13.50;;
39032;SDS011;24794;51.982;5.878;2023-11-21T02:51:32;45.38;;;14.45;;
39032;SDS011;24794;51.982;5.878;2023-11-21T02:52:33;71.15;;;15.23;;
39032;SDS011;24794;51.982;5.878;2023-11-21T02:53:35;44.65;;;14.55;;
39032;SDS011;24794;51.982;5.878;2023-11-21T02:54:35;36.58;;;14.50;;
39032;SDS011;24794;51.982;5.878;2023-11-21T02:55:36;33.47;;;14.90;;
39032;SDS011;24794;51.982;5.878;2023-11-21T02:56:37;42.53;;;15.38;;
39032;SDS011;24794;51.982;5.878;2023-11-21T02:57:37;45.80;;;15.45;;
39032;SDS011;24794;51.982;5.878;2023-11-21T02:58:41;31.83;;;15.95;;
39032;SDS011;24794;51.982;5.878;2023-11-21T02:59:43;31.15;;;15.13;;
39032;SDS011;24794;51.982;5.878;2023-11-21T03:00:44;35.83;;;14.52;;
39032;SDS011;24794;51.982;5.878;2023-11-21T03:01:45;52.28;;;15.07;;
39032;SDS011;24794;51.982;5.878;2023-11-21T03:02:46;44.15;;;15.30;;
39032;SDS011;24794;51.982;5.878;2023-11-21T03:03:47;63.45;;;16.67;;
39032;SDS011;24794;51.982;5.878;2023-11-21T03:04:51;42.17;;;16.40;;
39032;SDS011;24794;51.982;5.878;2023-11-21T03:05:51;32.30;;;15.13;;
39032;SDS011;24794;51.982;5.878;2023-11-21T03:06:52;44.58;;;15.60;;
39032;SDS011;24794;51.982;5.878;2023-11-21T03:07:52;34.30;;;14.48;;
39032;SDS011;24794;51.982;5.878;2023-11-21T03:08:53;46.15;;;16.95;;
39032;SDS011;24794;51.982;5.878;2023-11-21T03:09:53;32.60;;;14.82;;
39032;SDS011;24794;51.982;5.878;2023-11-21T03:10:54;37.10;;;15.65;;
39032;SDS011;24794;51.982;5.878;2023-11-21T03:11:55;44.42;;;16.05;;
39032;SDS011;24794;51.982;5.878;2023-11-21T03:12:56;46.88;;;16.38;;
39032;SDS011;24794;51.982;5.878;2023-11-21T03:13:57;46.67;;;15.45;;
39032;SDS011;24794;51.982;5.878;2023-11-21T03:14:58;38.17;;;15.32;;
39032;SDS011;24794;51.982;5.878;2023-11-21T03:15:58;44.72;;;16.05;;
39032;SDS011;24794;51.982;5.878;2023-11-21T03:16:59;36.28;;;15.10;;
39032;SDS011;24794;51.982;5.878;2023-11-21T03:17:59;42.42;;;15.68;;
39032;SDS011;24794;51.982;5.878;2023-11-21T03:19:00;33.83;;;14.40;;
39032;SDS011;24794;51.982;5.878;2023-11-21T03:20:00;31.33;;;14.82;;
39032;SDS011;24794;51.982;5.878;2023-11-21T03:21:01;37.97;;;15.80;;
39032;SDS011;24794;51.982;5.878;2023-11-21T03:22:02;50.45;;;16.80;;
39032;SDS011;24794;51.982;5.878;2023-11-21T03:23:04;30.15;;;15.55;;
39032;SDS011;24794;51.982;5.878;2023-11-21T03:24:05;33.70;;;16.65;;
39032;SDS011;24794;51.982;5.878;2023-11-21T03:25:07;27.77;;;14.60;;
39032;SDS011;24794;51.982;5.878;2023-11-21T03:26:11;26.48;;;13.70;;
39032;SDS011;24794;51.982;5.878;2023-11-21T03:27:12;45.35;;;17.38;;
39032;SDS011;24794;51.982;5.878;2023-11-21T03:28:13;51.20;;;18.38;;
39032;SDS011;24794;51.982;5.878;2023-11-21T03:29:13;30.75;;;15.45;;
39032;SDS011;24794;51.982;5.878;2023-11-21T03:30:14;28.25;;;15.38;;
39032;SDS011;24794;51.982;5.878;2023-11-21T03:31:15;27.35;;;15.18;;
39032;SDS011;24794;51.982;5.878;2023-11-21T03:32:17;26.58;;;14.27;;
39032;SDS011;24794;51.982;5.878;2023-11-21T03:33:18;30.20;;;15.20;;
39032;SDS011;24794;51.982;5.878;2023-11-21T03:34:27;23.58;;;14.77;;
39032;SDS011;24794;51.982;5.878;2023-11-21T03:35:28;49.33;;;16.92;;
39032;SDS011;24794;51.982;5.878;2023-11-21T03:36:28;34.20;;;15.80;;
39032;SDS011;24794;51.982;5.878;2023-11-21T03:37:29;37.47;;;16.00;;
39032;SDS011;24794;51.982;5.878;2023-11-21T03:38:29;45.90;;;15.95;;
39032;SDS011;24794;51.982;5.878;2023-11-21T03:39:30;39.08;;;16.02;;
39032;SDS011;24794;51.982;5.878;2023-11-21T03:40:30;50.42;;;16.48;;
39032;SDS011;24794;51.982;5.878;2023-11-21T03:41:31;31.27;;;14.43;;
39032;SDS011;24794;51.982;5.878;2023-11-21T03:42:32;42.85;;;16.17;;
39032;SDS011;24794;51.982;5.878;2023-11-21T03:43:32;40.08;;;15.05;;
39032;SDS011;24794;51.982;5.878;2023-11-21T03:44:33;24.33;;;12.75;;
39032;SDS011;24794;51.982;5.878;2023-11-21T03:45:33;32.45;;;14.90;;
39032;SDS011;24794;51.982;5.878;2023-11-21T03:46:34;35.35;;;16.33;;
39032;SDS011;24794;51.982;5.878;2023-11-21T03:47:34;30.80;;;16.10;;
39032;SDS011;24794;51.982;5.878;2023-11-21T03:48:35;26.92;;;15.07;;
39032;SDS011;24794;51.982;5.878;2023-11-21T03:49:35;23.33;;;13.85;;
39032;SDS011;24794;51.982;5.878;2023-11-21T03:50:36;27.35;;;15.32;;
39032;SDS011;24794;51.982;5.878;2023-11-21T03:51:36;29.23;;;14.30;;
39032;SDS011;24794;51.982;5.878;2023-11-21T03:52:37;21.27;;;13.75;;
39032;SDS011;24794;51.982;5.878;2023-11-21T03:53:38;21.10;;;12.85;;
39032;SDS011;24794;51.982;5.878;2023-11-21T03:54:38;23.73;;;12.98;;
39032;SDS011;24794;51.982;5.878;2023-11-21T03:55:39;24.90;;;13.63;;
39032;SDS011;24794;51.982;5.878;2023-11-21T03:56:39;30.42;;;16.05;;
39032;SDS011;24794;51.982;5.878;2023-11-21T03:57:40;25.95;;;15.48;;
39032;SDS011;24794;51.982;5.878;2023-11-21T03:58:40;26.08;;;15.43;;
39032;SDS011;24794;51.982;5.878;2023-11-21T03:59:41;32.25;;;16.45;;
39032;SDS011;24794;51.982;5.878;2023-11-21T04:00:42;25.02;;;15.45;;
39032;SDS011;24794;51.982;5.878;2023-11-21T04:01:43;34.22;;;17.45;;
39032;SDS011;24794;51.982;5.878;2023-11-21T04:02:44;28.83;;;16.80;;
39032;SDS011;24794;51.982;5.878;2023-11-21T04:03:45;27.10;;;14.70;;
39032;SDS011;24794;51.982;5.878;2023-11-21T04:04:46;27.90;;;16.38;;
39032;SDS011;24794;51.982;5.878;2023-11-21T04:05:47;33.00;;;17.55;;
39032;SDS011;24794;51.982;5.878;2023-11-21T04:06:47;32.45;;;16.38;;
39032;SDS011;24794;51.982;5.878;2023-11-21T04:07:51;32.53;;;16.83;;
39032;SDS011;24794;51.982;5.878;2023-11-21T04:08:52;37.47;;;15.45;;
39032;SDS011;24794;51.982;5.878;2023-11-21T04:09:53;54.03;;;17.17;;
39032;SDS011;24794;51.982;5.878;2023-11-21T04:10:53;34.17;;;16.33;;
39032;SDS011;24794;51.982;5.878;2023-11-21T04:11:54;38.50;;;16.08;;
39032;SDS011;24794;51.982;5.878;2023-11-21T04:12:55;33.05;;;15.43;;
39032;SDS011;24794;51.982;5.878;2023-11-21T04:13:56;27.92;;;14.60;;
39032;SDS011;24794;51.982;5.878;2023-11-21T04:14:56;35.05;;;14.70;;
39032;SDS011;24794;51.982;5.878;2023-11-21T04:15:57;43.60;;;15.73;;
39032;SDS011;24794;51.982;5.878;2023-11-21T04:16:57;53.67;;;15.88;;
39032;SDS011;24794;51.982;5.878;2023-11-21T04:17:58;31.05;;;15.10;;
39032;SDS011;24794;51.982;5.878;2023-11-21T04:18:58;50.88;;;16.33;;
39032;SDS011;24794;51.982;5.878;2023-11-21T04:19:59;42.40;;;15.85;;
39032;SDS011;24794;51.982;5.878;2023-11-21T04:20:59;73.05;;;17.30;;
39032;SDS011;24794;51.982;5.878;2023-11-21T04:22:00;74.18;;;17.70;;
39032;SDS011;24794;51.982;5.878;2023-11-21T04:23:00;59.53;;;17.33;;
39032;SDS011;24794;51.982;5.878;2023-11-21T04:24:01;78.38;;;17.98;;
39032;SDS011;24794;51.982;5.878;2023-11-21T04:25:01;49.75;;;17.05;;
39032;SDS011;24794;51.982;5.878;2023-11-21T04:26:02;49.03;;;16.63;;
39032;SDS011;24794;51.982;5.878;2023-11-21T04:27:03;96.43;;;17.13;;
39032;SDS011;24794;51.982;5.878;2023-11-21T04:28:03;53.05;;;16.45;;
39032;SDS011;24794;51.982;5.878;2023-11-21T04:29:04;37.78;;;15.40;;
39032;SDS011;24794;51.982;5.878;2023-11-21T04:30:05;60.33;;;17.02;;
39032;SDS011;24794;51.982;5.878;2023-11-21T04:31:05;29.88;;;15.05;;
39032;SDS011;24794;51.982;5.878;2023-11-21T04:32:07;51.42;;;16.50;;
39032;SDS011;24794;51.982;5.878;2023-11-21T04:33:07;39.75;;;16.55;;
39032;SDS011;24794;51.982;5.878;2023-11-21T04:34:08;30.35;;;14.60;;
39032;SDS011;24794;51.982;5.878;2023-11-21T04:35:09;42.78;;;16.50;;
39032;SDS011;24794;51.982;5.878;2023-11-21T04:36:09;27.13;;;14.70;;
39032;SDS011;24794;51.982;5.878;2023-11-21T04:37:10;43.55;;;16.83;;
39032;SDS011;24794;51.982;5.878;2023-11-21T04:38:11;36.13;;;16.70;;
39032;SDS011;24794;51.982;5.878;2023-11-21T04:39:11;41.75;;;16.13;;
39032;SDS011;24794;51.982;5.878;2023-11-21T04:40:12;35.17;;;15.93;;
39032;SDS011;24794;51.982;5.878;2023-11-21T04:41:12;59.28;;;17.83;;
39032;SDS011;24794;51.982;5.878;2023-11-21T04:42:13;31.70;;;15.45;;
39032;SDS011;24794;51.982;5.878;2023-11-21T04:43:13;35.15;;;15.73;;
39032;SDS011;24794;51.982;5.878;2023-11-21T04:44:14;34.80;;;15.27;;
39032;SDS011;24794;51.982;5.878;2023-11-21T04:45:16;29.33;;;14.93;;
39032;SDS011;24794;51.982;5.878;2023-11-21T04:46:16;27.83;;;14.57;;
39032;SDS011;24794;51.982;5.878;2023-11-21T04:47:17;30.08;;;14.77;;
39032;SDS011;24794;51.982;5.878;2023-11-21T04:48:19;29.63;;;13.77;;
39032;SDS011;24794;51.982;5.878;2023-11-21T04:49:19;30.77;;;14.18;;
39032;SDS011;24794;51.982;5.878;2023-11-21T04:50:20;23.77;;;13.30;;
39032;SDS011;24794;51.982;5.878;2023-11-21T04:51:21;22.63;;;13.95;;
39032;SDS011;24794;51.982;5.878;2023-11-21T04:52:21;41.45;;;14.52;;
39032;SDS011;24794;51.982;5.878;2023-11-21T04:53:22;28.15;;;13.93;;
39032;SDS011;24794;51.982;5.878;2023-11-21T04:54:22;26.55;;;14.30;;
39032;SDS011;24794;51.982;5.878;2023-11-21T04:55:23;25.75;;;13.55;;
39032;SDS011;24794;51.982;5.878;2023-11-21T04:56:23;23.42;;;13.43;;
39032;SDS011;24794;51.982;5.878;2023-11-21T04:57:24;23.15;;;13.13;;
39032;SDS011;24794;51.982;5.878;2023-11-21T04:58:25;22.17;;;13.60;;
39032;SDS011;24794;51.982;5.878;2023-11-21T04:59:25;34.45;;;14.50;;
39032;SDS011;24794;51.982;5.878;2023-11-21T05:00:27;25.67;;;14.20;;
39032;SDS011;24794;51.982;5.878;2023-11-21T05:01:27;27.33;;;13.90;;
39032;SDS011;24794;51.982;5.878;2023-11-21T05:02:28;31.50;;;13.55;;
39032;SDS011;24794;51.982;5.878;2023-11-21T05:03:28;27.23;;;13.02;;
39032;SDS011;24794;51.982;5.878;2023-11-21T05:04:30;21.05;;;12.75;;
39032;SDS011;24794;51.982;5.878;2023-11-21T05:05:30;22.67;;;11.90;;
39032;SDS011;24794;51.982;5.878;2023-11-21T05:06:31;22.42;;;12.18;;
39032;SDS011;24794;51.982;5.878;2023-11-21T05:07:33;22.33;;;12.57;;
39032;SDS011;24794;51.982;5.878;2023-11-21T05:08:35;21.85;;;13.25;;
39032;SDS011;24794;51.982;5.878;2023-11-21T05:09:40;20.60;;;12.85;;
39032;SDS011;24794;51.982;5.878;2023-11-21T05:10:41;21.73;;;12.45;;
39032;SDS011;24794;51.982;5.878;2023-11-21T05:11:42;20.52;;;11.55;;
39032;SDS011;24794;51.982;5.878;2023-11-21T05:12:42;24.85;;;11.95;;
39032;SDS011;24794;51.982;5.878;2023-11-21T05:13:43;21.63;;;12.23;;
39032;SDS011;24794;51.982;5.878;2023-11-21T05:14:43;21.40;;;12.05;;
39032;SDS011;24794;51.982;5.878;2023-11-21T05:15:44;19.88;;;11.93;;
39032;SDS011;24794;51.982;5.878;2023-11-21T05:16:45;19.65;;;11.65;;
39032;SDS011;24794;51.982;5.878;2023-11-21T05:17:46;18.15;;;11.60;;
39032;SDS011;24794;51.982;5.878;2023-11-21T05:18:50;20.25;;;11.73;;
39032;SDS011;24794;51.982;5.878;2023-11-21T05:19:50;16.92;;;11.27;;
39032;SDS011;24794;51.982;5.878;2023-11-21T05:20:51;17.17;;;11.13;;
39032;SDS011;24794;51.982;5.878;2023-11-21T05:21:51;17.58;;;11.50;;
39032;SDS011;24794;51.982;5.878;2023-11-21T05:22:52;20.23;;;13.32;;
39032;SDS011;24794;51.982;5.878;2023-11-21T05:23:52;17.17;;;11.27;;
39032;SDS011;24794;51.982;5.878;2023-11-21T05:24:53;14.75;;;10.23;;
39032;SDS011;24794;51.982;5.878;2023-11-21T05:25:54;15.50;;;10.48;;
39032;SDS011;24794;51.982;5.878;2023-11-21T05:26:56;16.13;;;11.13;;
39032;SDS011;24794;51.982;5.878;2023-11-21T05:27:56;17.80;;;11.15;;
39032;SDS011;24794;51.982;5.878;2023-11-21T05:29:01;18.73;;;12.13;;
39032;SDS011;24794;51.982;5.878;2023-11-21T05:30:02;16.50;;;11.65;;
39032;SDS011;24794;51.982;5.878;2023-11-21T05:31:05;17.52;;;11.43;;
39032;SDS011;24794;51.982;5.878;2023-11-21T05:32:05;18.83;;;11.85;;
39032;SDS011;24794;51.982;5.878;2023-11-21T05:33:06;17.73;;;11.93;;
39032;SDS011;24794;51.982;5.878;2023-11-21T05:34:06;18.48;;;12.07;;
39032;SDS011;24794;51.982;5.878;2023-11-21T05:35:07;15.80;;;10.85;;
39032;SDS011;24794;51.982;5.878;2023-11-21T05:36:11;18.27;;;12.07;;
39032;SDS011;24794;51.982;5.878;2023-11-21T05:37:13;18.42;;;11.73;;
39032;SDS011;24794;51.982;5.878;2023-11-21T05:38:13;16.75;;;10.73;;
39032;SDS011;24794;51.982;5.878;2023-11-21T05:39:14;15.23;;;10.32;;
39032;SDS011;24794;51.982;5.878;2023-11-21T05:40:17;18.65;;;11.93;;
39032;SDS011;24794;51.982;5.878;2023-11-21T05:41:17;18.98;;;11.60;;
39032;SDS011;24794;51.982;5.878;2023-11-21T05:42:18;17.17;;;11.23;;
39032;SDS011;24794;51.982;5.878;2023-11-21T05:43:19;18.75;;;12.15;;
39032;SDS011;24794;51.982;5.878;2023-11-21T05:44:19;21.35;;;12.57;;
39032;SDS011;24794;51.982;5.878;2023-11-21T05:45:20;22.73;;;13.95;;
39032;SDS011;24794;51.982;5.878;2023-11-21T05:46:21;21.30;;;12.93;;
39032;SDS011;24794;51.982;5.878;2023-11-21T05:47:21;18.90;;;12.73;;
39032;SDS011;24794;51.982;5.878;2023-11-21T05:48:22;20.58;;;13.27;;
39032;SDS011;24794;51.982;5.878;2023-11-21T05:49:23;20.85;;;12.30;;
39032;SDS011;24794;51.982;5.878;2023-11-21T05:50:26;18.17;;;11.38;;
39032;SDS011;24794;51.982;5.878;2023-11-21T05:51:26;19.02;;;11.38;;
39032;SDS011;24794;51.982;5.878;2023-11-21T05:52:27;18.55;;;11.73;;
39032;SDS011;24794;51.982;5.878;2023-11-21T05:53:27;19.75;;;12.23;;
39032;SDS011;24794;51.982;5.878;2023-11-21T05:54:28;19.35;;;12.02;;
39032;SDS011;24794;51.982;5.878;2023-11-21T05:55:28;20.95;;;13.27;;
39032;SDS011;24794;51.982;5.878;2023-11-21T05:56:29;21.50;;;11.85;;
39032;SDS011;24794;51.982;5.878;2023-11-21T05:57:30;20.70;;;12.40;;